Time;durP1;ratioP1;P1;durP2;ratioP2;P2;SDS_P1;SDS_P2;PMS_P1;PMS_P2;Temp;Humidity;BMP_temperature;BMP_pressure;BME280_temperature;BME280_humidity;BME280_pressure;Samples;Min_cycle;Max_cycle;Signal;HPM_P1;HPM_P2
2020/12/11 00:00:11;;;;;;;30.35;18.20;;;;;;;0.36;79.92;95341.84;4878402;29;20402;-75
2020/12/11 00:02:37;;;;;;;29.42;18.00;;;;;;;0.35;79.61;95346.16;4871975;29;20049;-75
2020/12/11 00:05:04;;;;;;;31.15;19.08;;;;;;;0.37;79.92;95348.56;4879536;29;20065;-74
2020/12/11 00:07:38;;;;;;;30.60;18.85;;;;;;;0.40;80.17;95356.75;4848065;29;20173;-74
2020/12/11 00:10:05;;;;;;;33.83;18.80;;;;;;;0.45;80.25;95352.84;4878674;29;20044;-74
2020/12/11 00:12:32;;;;;;;30.83;18.27;;;;;;;0.46;79.99;95338.94;4880617;29;20067;-74
2020/12/11 00:14:59;;;;;;;29.50;18.45;;;;;;;0.47;79.67;95350.88;4862158;29;20049;-74
2020/12/11 00:17:26;;;;;;;31.00;19.00;;;;;;;0.47;79.63;95343.94;4878787;29;20048;-74
2020/12/11 00:19:53;;;;;;;32.17;18.58;;;;;;;0.40;79.06;95340.50;4864047;29;20052;-74
2020/12/11 00:22:20;;;;;;;31.33;18.92;;;;;;;0.38;79.18;95340.66;4878575;29;20049;-76
2020/12/11 00:24:47;;;;;;;32.65;20.20;;;;;;;0.39;79.63;95341.47;4879712;29;20060;-74
2020/12/11 00:27:14;;;;;;;35.30;19.40;;;;;;;0.39;79.37;95341.47;4863708;29;20029;-74
2020/12/11 00:29:41;;;;;;;31.23;19.35;;;;;;;0.37;79.43;95338.25;4876959;29;20056;-73
2020/12/11 00:32:08;;;;;;;33.42;19.25;;;;;;;0.36;79.52;95341.84;4878789;29;20037;-74
2020/12/11 00:34:35;;;;;;;33.53;20.17;;;;;;;0.33;79.06;95337.03;4879700;29;20037;-74
2020/12/11 00:37:02;;;;;;;34.65;19.35;;;;;;;0.30;79.21;95330.47;4878699;29;20045;-73
2020/12/11 00:39:28;;;;;;;31.35;17.38;;;;;;;0.28;78.84;95326.47;4879215;29;20410;-74
2020/12/11 00:41:54;;;;;;;31.42;18.88;;;;;;;0.28;79.27;95329.84;4879408;29;20061;-74
2020/12/11 00:44:21;;;;;;;32.30;20.05;;;;;;;0.27;79.13;95319.69;4878321;29;20061;-75
2020/12/11 00:46:47;;;;;;;33.65;19.42;;;;;;;0.24;79.22;95318.28;4862135;29;20048;-74
2020/12/11 00:49:13;;;;;;;31.90;18.60;;;;;;;0.21;78.53;95310.94;4878087;29;20410;-74
2020/12/11 00:51:40;;;;;;;34.97;19.02;;;;;;;0.14;78.64;95312.63;4861119;29;20037;-74
2020/12/11 00:54:06;;;;;;;37.42;20.92;;;;;;;0.12;78.80;95309.41;4863185;29;20044;-74
2020/12/11 00:56:32;;;;;;;34.17;19.40;;;;;;;0.09;78.92;95310.56;4878812;29;20045;-74
2020/12/11 00:58:58;;;;;;;37.97;20.52;;;;;;;0.08;78.88;95305.59;4878326;29;20420;-75
2020/12/11 01:01:25;;;;;;;38.33;20.80;;;;;;;0.05;78.29;95308.56;4876247;29;20535;-76
2020/12/11 01:03:51;;;;;;;44.17;22.45;;;;;;;0.03;78.88;95295.84;4877854;29;20057;-74
2020/12/11 01:06:17;;;;;;;39.95;22.20;;;;;;;0.00;78.47;95293.63;4878721;29;20049;-75
2020/12/11 01:08:43;;;;;;;45.88;23.58;;;;;;;-0.03;79.07;95296.56;4878767;29;20068;-74
2020/12/11 01:11:12;;;;;;;42.33;22.85;;;;;;;-0.04;79.12;95282.88;4863222;29;20037;-74
2020/12/11 01:13:38;;;;;;;38.67;21.02;;;;;;;-0.09;78.67;95287.75;4878677;29;20049;-74
2020/12/11 01:16:06;;;;;;;40.85;20.50;;;;;;;-0.17;78.66;95276.75;4860758;29;20044;-74
2020/12/11 01:18:32;;;;;;;37.38;20.15;;;;;;;-0.25;78.73;95270.72;4879283;29;20056;-74
2020/12/11 01:20:58;;;;;;;37.42;21.35;;;;;;;-0.30;78.70;95265.31;4879036;29;20494;-74
2020/12/11 01:23:24;;;;;;;39.47;20.63;;;;;;;-0.32;79.05;95262.09;4879473;29;20053;-75
2020/12/11 01:25:51;;;;;;;41.30;21.95;;;;;;;-0.30;79.00;95264.50;4878894;29;20044;-74
2020/12/11 01:28:17;;;;;;;44.38;22.88;;;;;;;-0.29;79.26;95256.59;4877968;29;20064;-74
2020/12/11 01:30:43;;;;;;;39.25;21.70;;;;;;;-0.33;78.90;95252.00;4877749;29;20044;-74
2020/12/11 01:33:09;;;;;;;41.63;22.48;;;;;;;-0.35;78.92;95256.53;4878633;29;20486;-74
2020/12/11 01:35:35;;;;;;;39.47;22.38;;;;;;;-0.39;79.12;95250.94;4861880;29;20037;-74
2020/12/11 01:38:01;;;;;;;39.70;21.80;;;;;;;-0.39;78.91;95263.81;4877545;29;20045;-74
2020/12/11 01:40:36;;;;;;;40.60;22.50;;;;;;;-0.39;78.84;95268.16;4878604;29;20052;-74
2020/12/11 01:43:02;;;;;;;41.33;22.92;;;;;;;-0.43;78.84;95260.78;4878783;29;20041;-74
2020/12/11 01:45:28;;;;;;;43.85;24.02;;;;;;;-0.45;78.89;95259.38;4878572;29;20052;-75
2020/12/11 01:47:55;;;;;;;43.65;23.38;;;;;;;-0.51;78.84;95250.56;4861721;29;20052;-74
2020/12/11 01:50:21;;;;;;;43.10;23.30;;;;;;;-0.57;78.99;95240.97;4877839;29;20060;-74
2020/12/11 01:52:50;;;;;;;42.72;22.65;;;;;;;-0.54;79.02;95239.84;4876737;29;20058;-74
2020/12/11 01:55:16;;;;;;;43.45;22.83;;;;;;;-0.50;79.30;95251.38;4877435;29;20501;-76
2020/12/11 01:57:53;;;;;;;45.38;23.80;;;;;;;-0.47;78.96;95256.97;4879616;29;20060;-74
2020/12/11 02:00:20;;;;;;;41.10;22.73;;;;;;;-0.44;79.31;95250.69;4877247;29;20052;-74
2020/12/11 02:02:47;;;;;;;43.45;23.42;;;;;;;-0.41;79.27;95248.53;4875700;29;20061;-74
2020/12/11 02:05:14;;;;;;;45.85;24.50;;;;;;;-0.35;79.21;95246.22;4878298;29;20040;-74
2020/12/11 02:07:41;;;;;;;44.47;23.67;;;;;;;-0.29;79.33;95248.09;4881806;29;20387;-74
2020/12/11 02:10:09;;;;;;;42.85;23.60;;;;;;;-0.25;79.32;95246.75;4882950;29;20043;-74
2020/12/11 02:12:36;;;;;;;52.53;27.35;;;;;;;-0.22;79.10;95231.72;4882534;29;20056;-74
2020/12/11 02:15:05;;;;;;;101.85;56.70;;;;;;;-0.29;78.69;95217.19;4865875;29;20045;-74
2020/12/11 02:17:31;;;;;;;57.15;29.20;;;;;;;-0.37;78.64;95212.91;4883156;29;20427;-74
2020/12/11 02:19:57;;;;;;;42.95;23.38;;;;;;;-0.47;78.74;95205.47;4882674;29;20056;-74
2020/12/11 02:22:23;;;;;;;51.65;28.83;;;;;;;-0.52;78.87;95207.00;4882959;29;20041;-74
2020/12/11 02:24:50;;;;;;;62.58;32.58;;;;;;;-0.65;79.05;95198.13;4882701;29;20482;-74
2020/12/11 02:27:16;;;;;;;55.65;30.02;;;;;;;-0.72;79.06;95197.22;4882895;29;20052;-74
2020/12/11 02:29:42;;;;;;;56.80;31.52;;;;;;;-0.73;79.25;95193.06;4882540;29;20044;-74
2020/12/11 02:32:09;;;;;;;54.58;29.02;;;;;;;-0.83;79.19;95183.03;4882462;29;20047;-73
2020/12/11 02:34:37;;;;;;;51.88;27.15;;;;;;;-0.89;79.51;95168.28;4882798;29;20044;-74
2020/12/11 02:37:03;;;;;;;54.20;29.05;;;;;;;-0.93;79.63;95169.63;4881040;29;20053;-74
2020/12/11 02:39:30;;;;;;;47.78;25.33;;;;;;;-0.95;79.73;95168.22;4865642;29;20037;-74
2020/12/11 02:41:57;;;;;;;65.13;36.25;;;;;;;-0.99;79.85;95170.31;4882674;29;20056;-74
2020/12/11 02:44:23;;;;;;;63.15;33.28;;;;;;;-0.98;80.02;95161.66;4882360;29;20040;-74
2020/12/11 02:46:50;;;;;;;80.55;42.90;;;;;;;-1.02;79.96;95157.84;4881818;29;20426;-75
2020/12/11 02:49:16;;;;;;;77.10;43.17;;;;;;;-1.05;80.12;95145.31;4882166;29;20037;-74
2020/12/11 02:51:42;;;;;;;50.38;25.92;;;;;;;-1.04;80.08;95160.56;4875358;29;20048;-74
2020/12/11 02:54:08;;;;;;;45.95;23.77;;;;;;;-0.96;80.29;95154.56;4882130;29;20485;-75
2020/12/11 02:56:34;;;;;;;50.10;25.25;;;;;;;-0.88;80.21;95159.59;4881662;29;20065;-75
2020/12/11 02:59:00;;;;;;;51.78;27.58;;;;;;;-0.82;80.18;95158.06;4882140;29;20052;-74
2020/12/11 03:01:27;;;;;;;96.68;49.88;;;;;;;-0.75;80.20;95140.97;4881936;29;20500;-74
2020/12/11 03:03:55;;;;;;;106.88;54.03;;;;;;;-0.77;79.81;95149.84;4865336;29;20478;-74
2020/12/11 03:06:27;;;;;;;72.05;35.72;;;;;;;-0.78;80.01;95161.09;4881449;29;20084;-74
2020/12/11 03:08:54;;;;;;;155.00;78.72;;;;;;;-0.75;79.96;95153.03;4881536;29;20519;-74
2020/12/11 03:11:20;;;;;;;198.10;101.50;;;;;;;-0.77;79.72;95157.56;4881721;29;20037;-74
2020/12/11 03:13:46;;;;;;;102.18;50.20;;;;;;;-0.82;79.90;95150.34;4849792;29;20033;-75
2020/12/11 03:16:12;;;;;;;70.53;32.90;;;;;;;-0.81;79.92;95144.25;4881725;29;20056;-74
2020/12/11 03:18:39;;;;;;;53.63;26.88;;;;;;;-0.81;79.94;95141.69;4882328;29;20041;-74
2020/12/11 03:21:05;;;;;;;53.80;25.85;;;;;;;-0.78;80.07;95130.22;4865113;29;20393;-74
2020/12/11 03:23:31;;;;;;;47.90;22.35;;;;;;;-0.78;79.93;95137.94;4864827;29;20044;-74
2020/12/11 03:25:57;;;;;;;56.63;24.98;;;;;;;-0.78;79.98;95128.44;4881788;29;20049;-74
2020/12/11 03:28:23;;;;;;;53.00;25.77;;;;;;;-0.85;79.91;95119.84;4881328;29;20045;-74
2020/12/11 03:30:49;;;;;;;50.88;23.85;;;;;;;-0.92;79.93;95114.63;4881464;29;20048;-74
2020/12/11 03:33:15;;;;;;;52.53;24.30;;;;;;;-0.97;79.95;95114.34;4880100;29;20049;-74
2020/12/11 03:35:42;;;;;;;50.60;23.48;;;;;;;-0.97;80.13;95106.63;4880591;29;20053;-73
2020/12/11 03:38:08;;;;;;;52.55;26.00;;;;;;;-0.98;80.01;95096.53;4881451;29;20041;-74
2020/12/11 03:40:34;;;;;;;48.30;23.17;;;;;;;-1.00;80.13;95104.41;4881153;29;20037;-74
2020/12/11 03:43:00;;;;;;;50.47;24.17;;;;;;;-1.04;80.19;95082.59;4880308;29;20482;-74
2020/12/11 03:45:26;;;;;;;53.75;24.60;;;;;;;-1.09;80.24;95082.31;4880844;29;20414;-74
2020/12/11 03:47:52;;;;;;;53.28;24.88;;;;;;;-1.16;80.25;95081.44;4864382;29;20406;-74
2020/12/11 03:50:19;;;;;;;56.00;24.30;;;;;;;-1.17;80.48;95078.09;4880526;29;20509;-73
2020/12/11 03:52:45;;;;;;;55.28;24.67;;;;;;;-1.15;80.25;95067.63;4881190;29;20422;-74
2020/12/11 03:55:11;;;;;;;52.13;23.92;;;;;;;-1.15;80.43;95063.28;4881268;29;20053;-73
2020/12/11 03:57:37;;;;;;;52.63;24.30;;;;;;;-1.18;80.56;95053.31;4880723;29;20045;-74
2020/12/11 04:00:05;;;;;;;53.75;25.45;;;;;;;-1.25;80.52;95042.97;4881333;29;20040;-73
2020/12/11 04:02:34;;;;;;;50.17;24.77;;;;;;;-1.25;80.58;95042.16;4880671;29;20044;-73
2020/12/11 04:05:04;;;;;;;56.03;25.17;;;;;;;-1.27;80.84;95036.41;4880846;29;20070;-74
2020/12/11 04:07:31;;;;;;;55.53;25.60;;;;;;;-1.32;80.68;95031.03;4881198;29;20064;-74
2020/12/11 04:09:57;;;;;;;53.30;25.45;;;;;;;-1.34;80.77;95026.03;4880737;29;20043;-73
2020/12/11 04:12:23;;;;;;;57.33;25.25;;;;;;;-1.33;80.97;95024.25;4880967;29;20056;-74
2020/12/11 04:14:49;;;;;;;48.53;23.30;;;;;;;-1.32;80.86;95036.16;4880561;29;20041;-74
2020/12/11 04:17:16;;;;;;;49.90;23.20;;;;;;;-1.29;80.92;95041.72;4863967;29;20033;-74
2020/12/11 04:19:42;;;;;;;53.97;25.58;;;;;;;-1.32;80.77;95031.03;4880300;29;20037;-73
2020/12/11 04:22:08;;;;;;;61.05;26.73;;;;;;;-1.38;80.83;95034.31;4863950;29;20052;-73
2020/12/11 04:24:34;;;;;;;55.55;24.60;;;;;;;-1.45;80.45;95027.28;4880123;29;20048;-74
2020/12/11 04:27:00;;;;;;;52.10;24.85;;;;;;;-1.45;80.75;95022.16;4880235;29;20052;-74
2020/12/11 04:29:26;;;;;;;52.05;23.90;;;;;;;-1.48;81.06;95014.78;4857546;29;20041;-74
2020/12/11 04:31:57;;;;;;;53.92;24.63;;;;;;;-1.51;80.90;95016.91;4862948;29;20056;-74
2020/12/11 04:34:23;;;;;;;53.08;24.95;;;;;;;-1.56;81.03;95025.16;4880391;29;20049;-74
2020/12/11 04:36:55;;;;;;;56.17;25.27;;;;;;;-1.57;81.11;95015.06;4880306;29;20045;-74
2020/12/11 04:39:21;;;;;;;56.97;25.33;;;;;;;-1.61;81.18;95018.97;4875993;29;20068;-74
2020/12/11 04:41:50;;;;;;;57.20;26.73;;;;;;;-1.65;81.34;95029.59;4861384;29;20047;-74
2020/12/11 04:44:17;;;;;;;50.92;24.20;;;;;;;-1.60;81.32;95028.25;4880931;29;20040;-74
2020/12/11 04:46:43;;;;;;;58.60;26.38;;;;;;;-1.61;81.37;95035.19;4880255;29;20053;-74
2020/12/11 04:49:10;;;;;;;56.65;25.73;;;;;;;-1.63;81.37;95032.78;4880303;29;20037;-74
2020/12/11 04:51:45;;;;;;;54.13;23.27;;;;;;;-1.67;81.29;95026.41;4880032;29;20045;-74
2020/12/11 04:54:17;;;;;;;51.58;25.02;;;;;;;-1.63;81.39;95014.78;4879868;29;20048;-74
2020/12/11 04:56:47;;;;;;;49.08;23.90;;;;;;;-1.58;81.21;95016.81;4879818;29;20060;-74
2020/12/11 04:59:13;;;;;;;50.13;24.33;;;;;;;-1.53;81.26;95018.88;4879312;29;20068;-73
2020/12/11 05:01:39;;;;;;;46.80;22.15;;;;;;;-1.50;81.06;95009.03;4879879;29;20482;-74
2020/12/11 05:04:06;;;;;;;50.58;24.50;;;;;;;-1.51;80.92;95011.75;4876580;29;20041;-74
2020/12/11 05:06:32;;;;;;;52.53;24.13;;;;;;;-1.54;80.72;95012.91;4880235;29;20044;-74
2020/12/11 05:09:14;;;;;;;47.53;22.10;;;;;;;-1.54;80.84;95000.06;4879881;29;20036;-74
2020/12/11 05:11:44;;;;;;;48.25;23.35;;;;;;;-1.53;80.83;95003.47;4879558;29;20041;-74
2020/12/11 05:14:26;;;;;;;52.50;24.25;;;;;;;-1.60;80.59;94990.50;4863373;29;20454;-74
2020/12/11 05:16:56;;;;;;;48.90;24.17;;;;;;;-1.65;80.84;94990.25;4879546;29;20068;-74
2020/12/11 05:19:23;;;;;;;56.38;24.70;;;;;;;-1.71;80.68;94984.03;4880479;29;20037;-74
2020/12/11 05:21:49;;;;;;;50.30;23.08;;;;;;;-1.76;80.70;94986.34;4880080;29;20052;-74
2020/12/11 05:24:15;;;;;;;47.92;23.13;;;;;;;-1.80;80.78;94989.47;4879474;29;20056;-74
2020/12/11 05:26:41;;;;;;;51.10;24.02;;;;;;;-1.80;80.81;94984.31;4879383;29;20048;-73
2020/12/11 05:29:07;;;;;;;53.22;23.60;;;;;;;-1.84;80.58;94979.50;4879742;29;20037;-73
2020/12/11 05:31:33;;;;;;;51.15;24.27;;;;;;;-1.90;81.02;94992.28;4878212;29;20527;-74
2020/12/11 05:34:09;;;;;;;53.10;25.38;;;;;;;-1.91;81.53;94996.63;4878337;29;20051;-73
2020/12/11 05:36:54;;;;;;;51.30;24.42;;;;;;;-1.94;81.32;94996.97;4879262;29;20040;-73
2020/12/11 05:39:32;;;;;;;51.05;23.83;;;;;;;-1.92;81.68;95007.06;4879522;29;20402;-74
2020/12/11 05:42:09;;;;;;;56.33;25.10;;;;;;;-1.90;81.54;95000.78;4880750;29;20045;-74
2020/12/11 05:44:46;;;;;;;51.60;23.45;;;;;;;-1.90;81.51;94994.84;4882559;29;20059;-73
2020/12/11 05:47:22;;;;;;;47.70;23.45;;;;;;;-1.88;81.80;94998.81;4883391;29;20478;-74
2020/12/11 05:49:49;;;;;;;50.22;23.67;;;;;;;-1.86;81.29;94994.31;4883627;29;20052;-73
2020/12/11 05:52:22;;;;;;;48.88;24.02;;;;;;;-1.81;81.59;94972.44;4882836;29;20055;-74
2020/12/11 05:54:53;;;;;;;51.25;23.90;;;;;;;-1.78;81.46;94978.03;4882752;29;20053;-74
2020/12/11 05:57:24;;;;;;;47.47;23.33;;;;;;;-1.78;81.54;94961.81;4881301;29;20470;-74
2020/12/11 05:59:52;;;;;;;49.65;23.52;;;;;;;-1.80;81.44;94966.34;4883342;29;20040;-74
2020/12/11 06:02:19;;;;;;;48.65;23.48;;;;;;;-1.75;81.44;94964.81;4882692;29;20462;-74
2020/12/11 06:04:46;;;;;;;50.70;24.60;;;;;;;-1.71;81.39;94967.81;4883055;29;20048;-74
2020/12/11 06:07:14;;;;;;;53.33;24.98;;;;;;;-1.70;81.29;94964.25;4881634;29;20069;-74
2020/12/11 06:09:42;;;;;;;49.55;22.25;;;;;;;-1.73;81.48;94965.41;4882737;29;20060;-74
2020/12/11 06:12:10;;;;;;;53.20;24.65;;;;;;;-1.72;81.39;94961.06;4882771;29;20036;-74
2020/12/11 06:15:01;;;;;;;50.25;24.23;;;;;;;-1.64;81.87;94959.22;4881928;29;20041;-74
2020/12/11 06:17:32;;;;;;;51.80;23.02;;;;;;;-1.61;81.31;94957.28;4882722;29;20060;-74
2020/12/11 06:20:00;;;;;;;47.90;22.98;;;;;;;-1.57;81.25;94961.09;4877381;29;20398;-74
2020/12/11 06:22:26;;;;;;;49.85;23.33;;;;;;;-1.56;81.19;94972.94;4882600;29;20045;-74
2020/12/11 06:24:52;;;;;;;47.75;23.08;;;;;;;-1.56;81.44;94954.97;4882528;29;20111;-74
2020/12/11 06:27:30;;;;;;;47.50;24.23;;;;;;;-1.61;81.17;94945.22;4881942;29;20391;-74
2020/12/11 06:29:56;;;;;;;52.00;24.27;;;;;;;-1.67;81.13;94948.50;4882369;29;20056;-74
2020/12/11 06:32:33;;;;;;;48.72;23.20;;;;;;;-1.71;81.63;94937.78;4883086;29;20037;-73
2020/12/11 06:35:12;;;;;;;54.97;25.50;;;;;;;-1.71;81.51;94931.84;4882379;29;20048;-73
2020/12/11 06:37:40;;;;;;;52.30;24.92;;;;;;;-1.71;81.62;94924.13;4882442;29;20049;-73
2020/12/11 06:40:07;;;;;;;51.90;25.00;;;;;;;-1.72;81.77;94928.50;4881668;29;20516;-73
2020/12/11 06:42:39;;;;;;;52.53;23.52;;;;;;;-1.71;81.46;94927.50;4882492;29;20045;-73
2020/12/11 06:45:25;;;;;;;56.00;25.05;;;;;;;-1.70;81.44;94923.97;4882323;29;20033;-74
2020/12/11 06:47:55;;;;;;;53.42;24.83;;;;;;;-1.70;81.36;94930.84;4871608;29;20052;-74
2020/12/11 06:50:27;;;;;;;55.08;24.45;;;;;;;-1.68;81.36;94929.72;4882236;29;20041;-74
2020/12/11 06:52:55;;;;;;;52.58;24.63;;;;;;;-1.63;81.76;94929.19;4881528;29;20045;-74
2020/12/11 06:55:22;;;;;;;51.85;23.95;;;;;;;-1.64;81.24;94925.81;4882300;29;20053;-74
2020/12/11 06:57:49;;;;;;;52.45;23.42;;;;;;;-1.63;81.20;94921.47;4882451;29;20409;-74
2020/12/11 07:00:30;;;;;;;53.30;25.98;;;;;;;-1.70;81.16;94907.72;4882051;29;20037;-73
2020/12/11 07:03:16;;;;;;;54.05;26.13;;;;;;;-1.72;81.53;94913.06;4880635;29;20059;-73
2020/12/11 07:05:42;;;;;;;44.65;22.92;;;;;;;-1.69;81.35;94917.84;4881927;29;20485;-73
2020/12/11 07:08:13;;;;;;;49.53;23.83;;;;;;;-1.63;81.39;94906.84;4881830;29;20049;-73
2020/12/11 07:10:40;;;;;;;51.83;24.73;;;;;;;-1.62;81.23;94907.63;4881722;29;20478;-73
2020/12/11 07:13:10;;;;;;;48.67;23.95;;;;;;;-1.66;81.12;94898.69;4881708;29;20052;-73
2020/12/11 07:15:37;;;;;;;49.30;23.67;;;;;;;-1.67;81.54;94892.75;4881412;29;20429;-73
2020/12/11 07:18:12;;;;;;;49.33;23.70;;;;;;;-1.64;81.29;94892.41;4881705;29;20032;-73
2020/12/11 07:20:38;;;;;;;47.22;23.67;;;;;;;-1.66;81.59;94878.13;4881640;29;20045;-73
2020/12/11 07:23:05;;;;;;;48.95;24.38;;;;;;;-1.64;81.68;94876.16;4881904;29;20055;-74
2020/12/11 07:25:35;;;;;;;45.53;22.90;;;;;;;-1.63;81.37;94886.28;4881789;29;20044;-74
2020/12/11 07:28:03;;;;;;;48.03;22.63;;;;;;;-1.57;81.56;94869.34;4881500;29;20033;-74
2020/12/11 07:30:30;;;;;;;49.35;22.40;;;;;;;-1.50;81.46;94885.63;4881284;29;20037;-73
2020/12/11 07:32:56;;;;;;;43.00;21.70;;;;;;;-1.42;81.50;94878.81;4864970;29;20045;-73
2020/12/11 07:35:24;;;;;;;47.38;22.42;;;;;;;-1.34;81.22;94873.53;4881320;29;20040;-74
2020/12/11 07:37:55;;;;;;;44.72;22.83;;;;;;;-1.28;81.36;94865.06;4881720;29;20037;-73
2020/12/11 07:40:22;;;;;;;52.15;24.70;;;;;;;-1.30;80.81;94870.41;4880286;29;20033;-74
2020/12/11 07:42:50;;;;;;;45.05;22.20;;;;;;;-1.39;80.51;94870.72;4880910;29;20501;-74
2020/12/11 07:45:27;;;;;;;45.13;21.80;;;;;;;-1.41;80.75;94872.66;4881212;29;20474;-73
2020/12/11 07:47:54;;;;;;;44.47;22.92;;;;;;;-1.38;80.97;94877.47;4881117;29;20044;-74
2020/12/11 07:50:25;;;;;;;52.05;23.63;;;;;;;-1.41;80.50;94876.03;4881035;29;20033;-74
2020/12/11 07:52:53;;;;;;;49.80;23.40;;;;;;;-1.41;80.80;94870.09;4881438;29;20367;-73
2020/12/11 07:55:24;;;;;;;48.13;24.98;;;;;;;-1.42;80.65;94864.16;4879940;29;20056;-73
2020/12/11 07:57:55;;;;;;;48.05;24.00;;;;;;;-1.33;81.30;94868.19;4864398;29;20041;-74
2020/12/11 08:00:22;;;;;;;45.55;21.25;;;;;;;-1.18;82.15;94855.28;4880984;29;20045;-74
2020/12/11 08:03:08;;;;;;;49.38;24.65;;;;;;;-0.82;84.21;94860.38;4880734;29;20470;-74
2020/12/11 08:05:37;;;;;;;45.78;23.85;;;;;;;-0.56;81.55;94861.53;4880244;29;20053;-74
2020/12/11 08:08:04;;;;;;;46.42;23.23;;;;;;;-0.25;81.10;94855.22;4880951;29;20049;-74
2020/12/11 08:10:41;;;;;;;47.35;22.52;;;;;;;-0.01;79.44;94859.88;4880832;29;20041;-74
2020/12/11 08:13:11;;;;;;;42.92;21.65;;;;;;;0.18;79.65;94849.84;4868993;29;20045;-74
2020/12/11 08:15:38;;;;;;;45.20;21.63;;;;;;;0.39;79.36;94844.56;4880814;29;20048;-73
2020/12/11 08:18:23;;;;;;;42.28;21.88;;;;;;;0.61;77.88;94849.59;4880032;29;20041;-75
2020/12/11 08:20:53;;;;;;;38.78;21.17;;;;;;;0.64;78.30;94851.78;4879210;29;20048;-74
2020/12/11 08:23:33;;;;;;;39.95;20.63;;;;;;;0.71;78.34;94856.94;4879944;29;20048;-74
2020/12/11 08:26:20;;;;;;;43.55;23.30;;;;;;;0.71;76.59;94846.63;4879864;29;20049;-74
2020/12/11 08:28:48;;;;;;;43.25;22.25;;;;;;;0.71;78.10;94842.25;4878700;29;20491;-74
2020/12/11 08:31:23;;;;;;;43.78;22.83;;;;;;;0.65;76.95;94847.41;4870338;29;20056;-74
2020/12/11 08:33:59;;;;;;;45.45;22.67;;;;;;;0.43;76.92;94846.78;4879611;29;20036;-74
2020/12/11 08:36:26;;;;;;;42.42;21.45;;;;;;;0.26;77.60;94847.09;4880411;29;20413;-74
2020/12/11 08:39:11;;;;;;;48.85;23.83;;;;;;;0.23;77.27;94851.84;4879433;29;20045;-75
2020/12/11 08:41:44;;;;;;;49.35;24.40;;;;;;;0.17;78.10;94832.81;4880028;29;20399;-73
2020/12/11 08:44:17;;;;;;;42.30;21.88;;;;;;;0.17;77.67;94837.97;4880339;29;20045;-75
2020/12/11 08:49:23;;;;;;;46.65;24.08;;;;;;;0.09;78.14;94831.19;4875221;29;20045;-74
2020/12/11 08:51:50;;;;;;;45.72;22.88;;;;;;;0.12;78.22;94837.72;4880157;29;20037;-74
2020/12/11 08:54:26;;;;;;;62.08;33.55;;;;;;;0.10;77.23;94829.38;4863325;29;20064;-74
2020/12/11 08:56:53;;;;;;;44.97;23.55;;;;;;;0.06;77.76;94828.19;4879707;29;20045;-74
2020/12/11 08:59:19;;;;;;;45.15;24.27;;;;;;;0.05;78.07;94829.97;4879733;29;20049;-74
2020/12/11 09:01:45;;;;;;;42.95;22.75;;;;;;;0.25;78.31;94839.56;4877031;29;20044;-74
2020/12/11 09:04:12;;;;;;;42.97;22.40;;;;;;;0.47;78.13;94832.50;4879226;29;20040;-74
2020/12/11 09:06:38;;;;;;;46.92;22.58;;;;;;;0.58;77.03;94832.72;4863379;29;20037;-75
2020/12/11 09:09:05;;;;;;;42.38;21.83;;;;;;;0.52;77.05;94832.69;4861913;29;20036;-74
2020/12/11 09:11:31;;;;;;;38.78;22.42;;;;;;;0.47;76.59;94842.81;4879391;29;20056;-74
2020/12/11 09:13:57;;;;;;;43.70;21.85;;;;;;;0.36;76.59;94839.81;4877852;29;20393;-75
2020/12/11 09:16:24;;;;;;;42.13;21.77;;;;;;;0.37;77.09;94840.59;4875669;29;20056;-75
2020/12/11 09:18:50;;;;;;;36.53;15.15;;;;;;;0.94;92.37;94838.53;4876276;29;20041;-75
2020/12/11 09:21:16;;;;;;;42.67;19.55;;;;;;;2.20;100.00;94832.38;4878085;29;20045;-75
2020/12/11 09:23:42;;;;;;;38.25;20.92;;;;;;;3.00;86.23;94840.53;4858491;29;20045;-75
2020/12/11 09:26:09;;;;;;;37.28;20.45;;;;;;;3.01;77.61;94834.34;4874609;29;20037;-75
2020/12/11 09:28:35;;;;;;;36.35;20.92;;;;;;;2.67;76.33;94837.31;4878879;29;20048;-75
2020/12/11 09:31:02;;;;;;;37.95;20.95;;;;;;;2.26;75.05;94833.34;4877327;29;20053;-75
2020/12/11 09:33:31;;;;;;;41.78;20.52;;;;;;;1.92;75.28;94836.06;4878231;29;20053;-76
2020/12/11 09:35:58;;;;;;;36.13;20.17;;;;;;;1.70;75.81;94829.53;4877739;29;20075;-75
2020/12/11 09:38:24;;;;;;;38.30;20.35;;;;;;;1.56;76.13;94832.16;4878484;29;20410;-75
2020/12/11 09:40:55;;;;;;;38.15;21.30;;;;;;;1.45;76.18;94830.19;4881413;29;20479;-75
2020/12/11 09:56:31;;;;;;;42.55;21.88;;;;;;;1.28;74.11;94816.09;4877016;29;20053;-75
2020/12/11 09:59:09;;;;;;;;;;;;;;;1.05;73.24;94819.88;4880101;29;20060;-75
2020/12/11 10:01:55;;;;;;;39.83;21.10;;;;;;;0.89;75.80;94815.13;4879473;29;19928;-74
2020/12/11 10:04:21;;;;;;;45.63;22.83;;;;;;;0.90;76.53;94811.53;4878243;29;20048;-74
2020/12/11 10:06:47;;;;;;;42.47;22.20;;;;;;;0.93;76.64;94805.97;4878159;29;20466;-74
2020/12/11 10:09:14;;;;;;;37.08;21.17;;;;;;;0.97;76.61;94802.00;4879609;29;20383;-75
2020/12/11 10:11:40;;;;;;;41.45;22.52;;;;;;;1.03;76.77;94796.06;4862507;29;20041;-74
2020/12/11 10:16:40;;;;;;;44.10;22.95;;;;;;;1.01;76.21;94790.31;4878679;29;20037;-74
2020/12/11 10:19:06;;;;;;;49.72;25.10;;;;;;;0.87;75.99;94786.91;4877594;29;20041;-74
2020/12/11 10:21:32;;;;;;;41.55;22.65;;;;;;;0.82;76.38;94789.31;4879608;29;20056;-74
2020/12/11 10:23:58;;;;;;;47.92;23.88;;;;;;;0.85;76.36;94791.47;4862268;29;20092;-74
2020/12/11 10:26:25;;;;;;;45.08;23.30;;;;;;;0.87;76.28;94786.91;4878901;29;20041;-74
2020/12/11 10:28:52;;;;;;;43.83;23.20;;;;;;;0.95;76.02;94778.19;4881662;29;20474;-74
2020/12/11 10:31:18;;;;;;;55.42;28.75;;;;;;;1.01;76.20;94783.34;4882593;29;20136;-74
2020/12/11 10:33:45;;;;;;;51.65;29.00;;;;;;;1.12;75.71;94771.63;4881152;29;20048;-75
2020/12/11 10:36:12;;;;;;;45.20;24.25;;;;;;;1.18;75.56;94781.16;4882937;29;20044;-74
2020/12/11 10:38:38;;;;;;;42.78;22.48;;;;;;;1.30;75.76;94777.94;4865473;29;20056;-74
2020/12/11 10:41:04;;;;;;;43.05;23.00;;;;;;;1.48;75.93;94767.00;4882232;29;20033;-74
2020/12/11 10:43:31;;;;;;;41.55;22.33;;;;;;;1.49;75.01;94764.22;4882269;29;20041;-74
2020/12/11 10:45:57;;;;;;;44.10;21.88;;;;;;;1.36;74.66;94761.66;4881083;29;20036;-76
2020/12/11 10:48:23;;;;;;;39.35;20.45;;;;;;;1.29;75.21;94756.50;4882185;29;20045;-74
2020/12/11 10:50:49;;;;;;;80.07;39.10;;;;;;;1.23;75.34;94748.78;4870599;29;20048;-74
2020/12/11 10:53:16;;;;;;;79.35;40.30;;;;;;;1.10;75.06;94739.25;4882009;29;20044;-75
2020/12/11 10:55:42;;;;;;;54.05;28.38;;;;;;;1.12;75.47;94732.91;4881020;29;20490;-75
2020/12/11 10:58:08;;;;;;;47.58;29.33;;;;;;;1.16;75.37;94722.97;4865370;29;20052;-74
2020/12/11 11:00:34;;;;;;;46.28;24.98;;;;;;;1.18;75.62;94726.94;4849850;29;20045;-74
2020/12/11 11:03:01;;;;;;;51.88;30.25;;;;;;;1.18;75.39;94715.81;4881971;29;20041;-74
2020/12/11 11:05:27;;;;;;;43.00;23.15;;;;;;;1.20;75.73;94716.41;4861807;29;20052;-74
2020/12/11 11:07:53;;;;;;;56.22;29.42;;;;;;;1.23;75.53;94710.03;4872284;29;20049;-74
2020/12/11 11:11:02;;;;;;;42.78;23.60;;;;;;;1.24;75.46;94704.69;4868236;29;20056;-74
2020/12/11 11:13:24;;;;;;;41.00;22.80;;;;;;;1.16;75.36;94692.00;4874339;29;20053;-75
2020/12/11 11:15:55;;;;;;;45.10;23.55;;;;;;;1.14;75.79;94674.13;4849841;29;20048;-75
2020/12/11 11:18:32;;;;;;;38.15;20.70;;;;;;;1.12;75.69;94678.69;4881180;29;20033;-74
2020/12/11 11:28:44;;;;;;;39.22;21.02;;;;;;;1.71;75.21;94660.59;4889807;29;20490;-74
2020/12/11 11:31:11;;;;;;;39.22;21.55;;;;;;;1.88;74.97;94651.38;4880029;29;20064;-75
2020/12/11 11:33:40;;;;;;;50.75;26.52;;;;;;;2.00;74.71;94652.28;4880996;29;20410;-74
2020/12/11 11:36:07;;;;;;;34.80;20.00;;;;;;;2.08;74.15;94648.66;4864661;29;20119;-74
2020/12/11 11:38:33;;;;;;;46.13;24.30;;;;;;;2.13;73.94;94646.25;4849439;29;20037;-75
2020/12/11 11:40:59;;;;;;;45.65;25.75;;;;;;;2.13;73.45;94650.63;4863225;29;20049;-74
2020/12/11 11:43:47;;;;;;;35.50;19.13;;;;;;;2.24;73.99;94652.53;4880384;29;20052;-75
2020/12/11 11:46:13;;;;;;;52.67;27.77;;;;;;;2.37;73.76;94655.03;4852981;29;20048;-75
2020/12/11 11:48:42;;;;;;;37.58;20.00;;;;;;;2.41;73.78;94648.41;4881209;29;20045;-74
2020/12/11 11:51:18;;;;;;;44.80;24.27;;;;;;;2.31;72.92;94657.66;4879750;29;20496;-76